This is the latest recevied weather packets stored in our database for station/object KU9TRY. If no packets are shown the sender has not sent any weather packets the latest 10 day(s).
| Time | Temp. | Humidity | Pressure | Rain* | Wind** | Luminosity | Snow |
|---|---|---|---|---|---|---|---|
| 1777216695 | 23.33° C | 62% | 1015 hPa | 0 mm | - | 831 W/m² | - |
| 1777216391 | 22.78° C | 68% | 1014.9 hPa | 0 mm | - | 818 W/m² | - |
| 1777216090 | 22.78° C | 66% | 1015 hPa | 0 mm | - | 803 W/m² | - |
| 1777215785 | 22.22° C | 67% | 1015 hPa | 0 mm | - | 790 W/m² | - |
| 1777215482 | 22.22° C | 69% | 1015 hPa | 0 mm | - | 645 W/m² | - |
| 1777215178 | 22.22° C | 68% | 1014.8 hPa | 0 mm | - | 762 W/m² | - |
| 1777213966 | 20° C | 75% | 1014.7 hPa | 0 mm | - | 695 W/m² | - |
| 1777213661 | 19.44° C | 77% | 1014.7 hPa | 0 mm | - | 677 W/m² | - |
| 1777213055 | 19.44° C | 79% | 1014.6 hPa | 0 mm | - | 640 W/m² | - |
| 1777212752 | 19.44° C | 79% | 1014.5 hPa | 0 mm | - | 623 W/m² | - |
| 1777212447 | 18.33° C | 82% | 1014.8 hPa | 0 mm | - | 613 W/m² | - |
| 1777212141 | 18.33° C | 83% | 1014.5 hPa | 0 mm | - | 586 W/m² | - |
| 1777211232 | 16.67° C | 89% | 1014.7 hPa | 0 mm | - | 169 W/m² | - |
| 1777210628 | 16.67° C | 89% | 1014.9 hPa | 0 mm | - | 213 W/m² | - |
| 1777210325 | 15.56° C | 92% | 1014.6 hPa | 0 mm | - | 182 W/m² | - |
| 1777210023 | 15.56° C | 94% | 1014.5 hPa | 0 mm | - | 178 W/m² | - |
| 1777209722 | 15° C | 96% | 1014.7 hPa | 0 mm | - | 218 W/m² | - |
| 1777209115 | 14.44° C | 98% | 1014.5 hPa | 0 mm | - | 195 W/m² | - |
| 1777208810 | 13.89° C | 98% | 1014.5 hPa | 0 mm | - | 174 W/m² | - |
| 1777208508 | 13.89° C | 98% | 1014.5 hPa | 0 mm | - | 188 W/m² | - |
| 1777208204 | 13.89° C | 98% | 1014.5 hPa | 0 mm | - | 153 W/m² | - |
| 1777206990 | 12.78° C | 99% | 1014.4 hPa | 0 mm | - | 107 W/m² | - |
| 1777206686 | 12.78° C | 99% | 1014.2 hPa | 0 mm | - | 96 W/m² | - |
| 1777206381 | 12.78° C | 99% | 1014.3 hPa | 0 mm | - | 83 W/m² | - |
| 1777206076 | 12.78° C | 99% | 1014.2 hPa | 0 mm | - | 88 W/m² | - |
* Rain latest hour (hover to see other rain measurements)
** Current wind speed in m/s (hover to see current wind gust speed)